JTE232 YPAG-YPMH
Flight info
| Callsign | JTE232 |
|---|---|
| Flight time | 0h 46m |
| Altitude | 20000 |
| Route | PU2NH DCT PN2SF DCT PN2NA |
| Aircraft | DH8D/M-SDE2E3FGRY/H |
Departure
| Time | 2026-04-26 19:59 |
|---|---|
| Airport | Port Augusta Airport (YPAG) |
Arrival
| Time | 2026-04-26 20:45 |
|---|---|
| Airport | Prominent Hill Airport (YPMH) |
| Time | Latitude | Longitude | Altitude | Speed | Heading |
|---|---|---|---|---|---|
| 2026-04-26 19:43 | -32.50943 | 137.71870 | 60 ft | 0 kts | 249° |
| 2026-04-26 19:55 | -32.50946 | 137.71857 | 59 ft | 5 kts | 264° |
| 2026-04-26 19:55 | -32.50905 | 137.71826 | 59 ft | 13 kts | 338° |
| 2026-04-26 19:55 | -32.50846 | 137.71725 | 59 ft | 21 kts | 283° |
| 2026-04-26 19:55 | -32.50834 | 137.71626 | 60 ft | 8 kts | 243° |
| 2026-04-26 19:56 | -32.50874 | 137.71609 | 60 ft | 6 kts | 162° |
| 2026-04-26 19:56 | -32.50953 | 137.71646 | 60 ft | 16 kts | 159° |
| 2026-04-26 19:56 | -32.51078 | 137.71704 | 59 ft | 15 kts | 158° |
| 2026-04-26 19:56 | -32.51153 | 137.71750 | 58 ft | 7 kts | 131° |
| 2026-04-26 19:57 | -32.51170 | 137.71764 | 57 ft | 1 kts | 212° |
| 2026-04-26 19:57 | -32.51175 | 137.71753 | 58 ft | 0 kts | 258° |
| 2026-04-26 19:57 | -32.51175 | 137.71751 | 58 ft | 0 kts | 260° |
| 2026-04-26 19:57 | -32.51172 | 137.71742 | 58 ft | 0 kts | 336° |
| 2026-04-26 19:58 | -32.51160 | 137.71738 | 58 ft | 2 kts | 341° |
| 2026-04-26 19:58 | -32.51107 | 137.71716 | 58 ft | 17 kts | 338° |
| 2026-04-26 19:58 | -32.50939 | 137.71643 | 60 ft | 46 kts | 338° |
| 2026-04-26 19:58 | -32.50351 | 137.71378 | 62 ft | 129 kts | 339° |
| 2026-04-26 19:59 | -32.49380 | 137.70964 | 313 ft | 154 kts | 345° |
| 2026-04-26 19:59 | -32.48273 | 137.70714 | 733 ft | 173 kts | 3° |
| 2026-04-26 19:59 | -32.47067 | 137.71194 | 983 ft | 196 kts | 35° |
| 2026-04-26 19:59 | -32.45950 | 137.72087 | 1745 ft | 195 kts | 40° |
| 2026-04-26 20:00 | -32.44840 | 137.73141 | 2159 ft | 212 kts | 44° |
| 2026-04-26 20:00 | -32.43697 | 137.74295 | 2633 ft | 225 kts | 38° |
| 2026-04-26 20:00 | -32.42193 | 137.74739 | 3376 ft | 223 kts | 353° |
| 2026-04-26 20:00 | -32.40848 | 137.73973 | 4101 ft | 216 kts | 328° |
| 2026-04-26 20:01 | -32.39644 | 137.72934 | 4589 ft | 216 kts | 327° |
| 2026-04-26 20:01 | -32.38445 | 137.71875 | 5087 ft | 215 kts | 327° |
| 2026-04-26 20:01 | -32.37260 | 137.70822 | 5531 ft | 215 kts | 327° |
| 2026-04-26 20:01 | -32.36048 | 137.69746 | 5980 ft | 215 kts | 326° |
| 2026-04-26 20:02 | -32.34867 | 137.68698 | 6447 ft | 215 kts | 326° |
| 2026-04-26 20:02 | -32.33661 | 137.67629 | 6853 ft | 217 kts | 326° |
| 2026-04-26 20:02 | -32.32435 | 137.66542 | 7192 ft | 223 kts | 326° |
| 2026-04-26 20:02 | -32.31607 | 137.65808 | 7454 ft | 224 kts | 326° |
| 2026-04-26 20:03 | -32.29942 | 137.64331 | 7962 ft | 228 kts | 326° |
| 2026-04-26 20:03 | -32.28661 | 137.63194 | 8342 ft | 231 kts | 325° |
| 2026-04-26 20:03 | -32.27372 | 137.62050 | 8726 ft | 233 kts | 325° |
| 2026-04-26 20:03 | -32.26075 | 137.60902 | 9056 ft | 236 kts | 325° |
| 2026-04-26 20:04 | -32.24737 | 137.59715 | 9378 ft | 240 kts | 324° |
| 2026-04-26 20:04 | -32.23409 | 137.58539 | 9713 ft | 243 kts | 324° |
| 2026-04-26 20:04 | -32.22047 | 137.57333 | 10007 ft | 246 kts | 324° |
| 2026-04-26 20:04 | -32.20658 | 137.56104 | 10352 ft | 248 kts | 324° |
| 2026-04-26 20:05 | -32.19276 | 137.54880 | 10703 ft | 250 kts | 323° |
| 2026-04-26 20:05 | -32.17882 | 137.53648 | 10998 ft | 253 kts | 323° |
| 2026-04-26 20:05 | -32.16469 | 137.52397 | 11311 ft | 256 kts | 323° |
| 2026-04-26 20:05 | -32.15048 | 137.51141 | 11639 ft | 258 kts | 323° |
| 2026-04-26 20:06 | -32.13598 | 137.49863 | 11962 ft | 261 kts | 322° |
| 2026-04-26 20:06 | -32.12145 | 137.48578 | 12298 ft | 263 kts | 322° |
| 2026-04-26 20:06 | -32.10658 | 137.47267 | 12644 ft | 265 kts | 322° |
| 2026-04-26 20:06 | -32.09184 | 137.45966 | 12928 ft | 268 kts | 322° |
| 2026-04-26 20:07 | -32.07672 | 137.44632 | 13218 ft | 271 kts | 322° |
| 2026-04-26 20:07 | -32.06157 | 137.43297 | 13508 ft | 273 kts | 321° |
| 2026-04-26 20:07 | -32.04641 | 137.41962 | 13814 ft | 275 kts | 321° |
| 2026-04-26 20:07 | -32.03094 | 137.40599 | 14136 ft | 277 kts | 321° |
| 2026-04-26 20:08 | -32.01556 | 137.39246 | 14446 ft | 279 kts | 321° |
| 2026-04-26 20:08 | -32.00001 | 137.37877 | 14793 ft | 281 kts | 321° |
| 2026-04-26 20:08 | -31.98416 | 137.36482 | 15126 ft | 283 kts | 320° |
| 2026-04-26 20:08 | -31.96846 | 137.35103 | 15444 ft | 285 kts | 320° |
| 2026-04-26 20:09 | -31.95237 | 137.33688 | 15765 ft | 288 kts | 320° |
| 2026-04-26 20:09 | -31.93642 | 137.32288 | 16121 ft | 289 kts | 320° |
| 2026-04-26 20:09 | -31.92015 | 137.30861 | 16452 ft | 290 kts | 320° |
| 2026-04-26 20:09 | -31.90398 | 137.29442 | 16756 ft | 294 kts | 319° |
| 2026-04-26 20:10 | -31.88753 | 137.27997 | 17082 ft | 296 kts | 319° |
| 2026-04-26 20:10 | -31.87110 | 137.26558 | 17437 ft | 296 kts | 319° |
| 2026-04-26 20:10 | -31.85460 | 137.25113 | 17760 ft | 298 kts | 319° |
| 2026-04-26 20:10 | -31.83777 | 137.23637 | 18064 ft | 301 kts | 319° |
| 2026-04-26 20:11 | -31.82108 | 137.22176 | 18411 ft | 302 kts | 319° |
| 2026-04-26 20:11 | -31.80405 | 137.20686 | 18728 ft | 304 kts | 319° |
| 2026-04-26 20:11 | -31.78717 | 137.19209 | 19053 ft | 306 kts | 319° |
| 2026-04-26 20:12 | -31.75143 | 137.16077 | 19001 ft | 334 kts | 319° |
| 2026-04-26 20:12 | -31.73254 | 137.14426 | 18993 ft | 344 kts | 319° |
| 2026-04-26 20:12 | -31.71283 | 137.12705 | 18992 ft | 352 kts | 319° |
| 2026-04-26 20:12 | -31.69315 | 137.10989 | 18991 ft | 357 kts | 319° |
| 2026-04-26 20:13 | -31.67324 | 137.09256 | 19350 ft | 350 kts | 319° |
| 2026-04-26 20:13 | -31.65426 | 137.07608 | 19853 ft | 340 kts | 319° |
| 2026-04-26 20:13 | -31.63520 | 137.05948 | 20102 ft | 342 kts | 319° |
| 2026-04-26 20:13 | -31.61576 | 137.04254 | 20173 ft | 349 kts | 319° |
| 2026-04-26 20:14 | -31.59606 | 137.02537 | 20180 ft | 357 kts | 319° |
| 2026-04-26 20:14 | -31.57579 | 137.00774 | 20137 ft | 365 kts | 319° |
| 2026-04-26 20:14 | -31.55544 | 136.99004 | 20174 ft | 369 kts | 319° |
| 2026-04-26 20:14 | -31.53472 | 136.97205 | 20295 ft | 368 kts | 319° |
| 2026-04-26 20:15 | -31.51411 | 136.95416 | 20337 ft | 371 kts | 320° |
| 2026-04-26 20:15 | -31.49325 | 136.93607 | 20500 ft | 370 kts | 320° |
| 2026-04-26 20:15 | -31.47257 | 136.91815 | 20480 ft | 375 kts | 320° |
| 2026-04-26 20:15 | -31.45152 | 136.89990 | 20473 ft | 377 kts | 320° |
| 2026-04-26 20:16 | -31.43037 | 136.88159 | 20473 ft | 378 kts | 320° |
| 2026-04-26 20:16 | -31.40939 | 136.86343 | 20479 ft | 379 kts | 320° |
| 2026-04-26 20:16 | -31.38793 | 136.84486 | 20483 ft | 381 kts | 320° |
| 2026-04-26 20:16 | -31.36662 | 136.82645 | 20479 ft | 380 kts | 320° |
| 2026-04-26 20:17 | -31.34552 | 136.80823 | 20477 ft | 380 kts | 320° |
| 2026-04-26 20:17 | -31.32408 | 136.78972 | 20478 ft | 380 kts | 320° |
| 2026-04-26 20:17 | -31.30289 | 136.77144 | 20474 ft | 379 kts | 320° |
| 2026-04-26 20:17 | -31.28889 | 136.75935 | 20481 ft | 378 kts | 320° |
| 2026-04-26 20:18 | -31.26074 | 136.73508 | 20486 ft | 380 kts | 320° |
| 2026-04-26 20:18 | -31.23925 | 136.71655 | 20437 ft | 379 kts | 320° |
| 2026-04-26 20:18 | -31.21823 | 136.69841 | 20381 ft | 375 kts | 320° |
| 2026-04-26 20:18 | -31.19727 | 136.68034 | 20330 ft | 372 kts | 320° |
| 2026-04-26 20:19 | -31.17663 | 136.66257 | 20278 ft | 369 kts | 320° |
| 2026-04-26 20:19 | -31.15578 | 136.64462 | 20222 ft | 368 kts | 320° |
| 2026-04-26 20:19 | -31.13524 | 136.62695 | 20187 ft | 366 kts | 320° |
| 2026-04-26 20:19 | -31.11487 | 136.60945 | 20178 ft | 363 kts | 319° |
| 2026-04-26 20:20 | -31.09467 | 136.59210 | 20171 ft | 359 kts | 320° |
| 2026-04-26 20:20 | -31.07453 | 136.57481 | 20172 ft | 357 kts | 320° |
| 2026-04-26 20:20 | -31.05476 | 136.55786 | 20173 ft | 355 kts | 319° |
| 2026-04-26 20:20 | -31.03491 | 136.54085 | 20174 ft | 354 kts | 319° |
| 2026-04-26 20:21 | -31.01495 | 136.52374 | 20172 ft | 352 kts | 320° |
| 2026-04-26 20:21 | -30.99518 | 136.50682 | 20171 ft | 351 kts | 320° |
| 2026-04-26 20:21 | -30.97599 | 136.49040 | 20168 ft | 350 kts | 320° |
| 2026-04-26 20:21 | -30.95619 | 136.47345 | 20175 ft | 350 kts | 320° |
| 2026-04-26 20:22 | -30.93694 | 136.45700 | 20174 ft | 347 kts | 320° |
| 2026-04-26 20:22 | -30.91739 | 136.44031 | 20173 ft | 345 kts | 320° |
| 2026-04-26 20:22 | -30.89823 | 136.42394 | 20174 ft | 344 kts | 320° |
| 2026-04-26 20:22 | -30.87905 | 136.40756 | 20182 ft | 347 kts | 320° |
| 2026-04-26 20:23 | -30.85919 | 136.39066 | 20185 ft | 358 kts | 320° |
| 2026-04-26 20:23 | -30.83877 | 136.37329 | 20185 ft | 367 kts | 320° |
| 2026-04-26 20:23 | -30.81783 | 136.35547 | 20187 ft | 376 kts | 320° |
| 2026-04-26 20:23 | -30.79661 | 136.33743 | 20186 ft | 381 kts | 321° |
| 2026-04-26 20:24 | -30.77505 | 136.31911 | 20185 ft | 387 kts | 321° |
| 2026-04-26 20:24 | -30.75341 | 136.30072 | 20178 ft | 389 kts | 321° |
| 2026-04-26 20:24 | -30.73176 | 136.28232 | 20166 ft | 380 kts | 321° |
| 2026-04-26 20:24 | -30.71059 | 136.26431 | 20167 ft | 373 kts | 321° |
| 2026-04-26 20:25 | -30.68989 | 136.24672 | 20171 ft | 365 kts | 321° |
| 2026-04-26 20:25 | -30.67641 | 136.23528 | 20175 ft | 362 kts | 321° |
| 2026-04-26 20:25 | -30.64953 | 136.21245 | 20175 ft | 358 kts | 321° |
| 2026-04-26 20:25 | -30.62923 | 136.19521 | 20175 ft | 359 kts | 321° |
| 2026-04-26 20:26 | -30.60916 | 136.17819 | 20178 ft | 360 kts | 321° |
| 2026-04-26 20:26 | -30.58900 | 136.16110 | 20177 ft | 361 kts | 321° |
| 2026-04-26 20:26 | -30.56863 | 136.14386 | 20181 ft | 363 kts | 321° |
| 2026-04-26 20:26 | -30.54809 | 136.12648 | 20178 ft | 362 kts | 321° |
| 2026-04-26 20:27 | -30.52799 | 136.10948 | 20179 ft | 362 kts | 321° |
| 2026-04-26 20:27 | -30.50753 | 136.09218 | 20183 ft | 364 kts | 321° |
| 2026-04-26 20:27 | -30.48698 | 136.07481 | 20180 ft | 363 kts | 321° |
| 2026-04-26 20:27 | -30.46645 | 136.05749 | 20179 ft | 363 kts | 321° |
| 2026-04-26 20:28 | -30.44611 | 136.04033 | 20176 ft | 362 kts | 321° |
| 2026-04-26 20:28 | -30.42586 | 136.02325 | 20178 ft | 360 kts | 321° |
| 2026-04-26 20:28 | -30.40580 | 136.00635 | 20184 ft | 360 kts | 321° |
| 2026-04-26 20:28 | -30.38532 | 135.98909 | 20185 ft | 360 kts | 321° |
| 2026-04-26 20:29 | -30.36524 | 135.97218 | 20178 ft | 360 kts | 321° |
| 2026-04-26 20:29 | -30.34497 | 135.95512 | 20176 ft | 358 kts | 321° |
| 2026-04-26 20:29 | -30.32492 | 135.93826 | 20176 ft | 358 kts | 321° |
| 2026-04-26 20:29 | -30.30472 | 135.92128 | 20173 ft | 358 kts | 321° |
| 2026-04-26 20:30 | -30.28449 | 135.90428 | 20172 ft | 357 kts | 321° |
| 2026-04-26 20:30 | -30.26449 | 135.88748 | 20172 ft | 358 kts | 321° |
| 2026-04-26 20:30 | -30.24448 | 135.87070 | 20171 ft | 357 kts | 321° |
| 2026-04-26 20:30 | -30.22417 | 135.85365 | 20172 ft | 356 kts | 321° |
| 2026-04-26 20:31 | -30.20407 | 135.83679 | 20171 ft | 358 kts | 321° |
| 2026-04-26 20:31 | -30.18382 | 135.81982 | 20130 ft | 361 kts | 321° |
| 2026-04-26 20:31 | -30.16361 | 135.80287 | 20086 ft | 362 kts | 321° |
| 2026-04-26 20:31 | -30.14328 | 135.78584 | 20040 ft | 363 kts | 321° |
| 2026-04-26 20:32 | -30.12270 | 135.76862 | 19935 ft | 364 kts | 321° |
| 2026-04-26 20:32 | -30.10265 | 135.75185 | 19625 ft | 354 kts | 321° |
| 2026-04-26 20:32 | -30.08332 | 135.73492 | 19239 ft | 344 kts | 316° |
| 2026-04-26 20:32 | -30.06671 | 135.71536 | 18828 ft | 332 kts | 308° |
| 2026-04-26 20:33 | -30.05163 | 135.69608 | 18398 ft | 319 kts | 308° |
| 2026-04-26 20:33 | -30.03701 | 135.67731 | 17936 ft | 309 kts | 308° |
| 2026-04-26 20:33 | -30.02296 | 135.65929 | 17466 ft | 300 kts | 308° |
| 2026-04-26 20:33 | -30.00926 | 135.64172 | 16984 ft | 295 kts | 308° |
| 2026-04-26 20:34 | -29.99562 | 135.62425 | 16449 ft | 291 kts | 308° |
| 2026-04-26 20:34 | -29.98228 | 135.60681 | 15841 ft | 289 kts | 304° |
| 2026-04-26 20:34 | -29.97367 | 135.58673 | 15221 ft | 280 kts | 279° |
| 2026-04-26 20:34 | -29.97183 | 135.56483 | 14622 ft | 274 kts | 267° |
| 2026-04-26 20:35 | -29.97159 | 135.54292 | 14013 ft | 273 kts | 266° |
| 2026-04-26 20:35 | -29.97145 | 135.52138 | 13407 ft | 272 kts | 266° |
| 2026-04-26 20:35 | -29.97135 | 135.49965 | 12790 ft | 272 kts | 266° |
| 2026-04-26 20:35 | -29.97127 | 135.47804 | 12169 ft | 271 kts | 266° |
| 2026-04-26 20:36 | -29.97119 | 135.45645 | 11545 ft | 269 kts | 266° |
| 2026-04-26 20:36 | -29.97152 | 135.43518 | 10913 ft | 265 kts | 259° |
| 2026-04-26 20:36 | -29.97753 | 135.41565 | 10276 ft | 258 kts | 232° |
| 2026-04-26 20:36 | -29.99021 | 135.40205 | 9650 ft | 249 kts | 205° |
| 2026-04-26 20:37 | -30.00660 | 135.39712 | 9019 ft | 244 kts | 179° |
| 2026-04-26 20:37 | -30.02263 | 135.40176 | 8393 ft | 241 kts | 151° |
| 2026-04-26 20:37 | -30.03483 | 135.41479 | 7758 ft | 241 kts | 126° |
| 2026-04-26 20:37 | -30.04335 | 135.43127 | 7137 ft | 241 kts | 118° |
| 2026-04-26 20:38 | -30.04757 | 135.44975 | 6483 ft | 245 kts | 92° |
| 2026-04-26 20:38 | -30.04352 | 135.46863 | 5827 ft | 249 kts | 64° |
| 2026-04-26 20:38 | -30.03185 | 135.48271 | 5527 ft | 237 kts | 32° |
| 2026-04-26 20:38 | -30.01653 | 135.48795 | 5292 ft | 224 kts | 8° |
| 2026-04-26 20:39 | -30.00134 | 135.48915 | 5006 ft | 213 kts | 4° |
| 2026-04-26 20:39 | -29.99153 | 135.48965 | 4642 ft | 215 kts | 4° |
| 2026-04-26 20:39 | -29.97122 | 135.49023 | 3801 ft | 223 kts | 3° |
| 2026-04-26 20:39 | -29.95566 | 135.49037 | 3167 ft | 228 kts | 2° |
| 2026-04-26 20:40 | -29.93959 | 135.49034 | 2522 ft | 233 kts | 2° |
| 2026-04-26 20:40 | -29.92349 | 135.49016 | 1908 ft | 234 kts | 2° |
| 2026-04-26 20:40 | -29.90841 | 135.48981 | 1997 ft | 198 kts | 1° |
| 2026-04-26 20:40 | -29.89566 | 135.48938 | 2010 ft | 166 kts | 1° |
| 2026-04-26 20:41 | -29.88509 | 135.48885 | 1866 ft | 144 kts | 2° |
| 2026-04-26 20:41 | -29.87476 | 135.48993 | 1191 ft | 156 kts | 16° |
| 2026-04-26 20:41 | -29.86475 | 135.49257 | 918 ft | 145 kts | 17° |
| 2026-04-26 20:41 | -29.85481 | 135.49532 | 1394 ft | 138 kts | 19° |
| 2026-04-26 20:42 | -29.84621 | 135.49823 | 2247 ft | 143 kts | 22° |
| 2026-04-26 20:42 | -29.83642 | 135.50055 | 3174 ft | 148 kts | 15° |
| 2026-04-26 20:42 | -29.82507 | 135.50284 | 3314 ft | 172 kts | 12° |
| 2026-04-26 20:42 | -29.81321 | 135.50490 | 3061 ft | 166 kts | 11° |
| 2026-04-26 20:43 | -29.80184 | 135.50662 | 2619 ft | 166 kts | 11° |
| 2026-04-26 20:43 | -29.79014 | 135.50847 | 2017 ft | 170 kts | 17° |
| 2026-04-26 20:43 | -29.77908 | 135.51085 | 1729 ft | 159 kts | 12° |
| 2026-04-26 20:43 | -29.76814 | 135.51288 | 1608 ft | 163 kts | 16° |
| 2026-04-26 20:44 | -29.75744 | 135.51535 | 1380 ft | 152 kts | 16° |
| 2026-04-26 20:44 | -29.74713 | 135.51790 | 1164 ft | 153 kts | 12° |
| 2026-04-26 20:44 | -29.73655 | 135.52019 | 1026 ft | 158 kts | 15° |
| 2026-04-26 20:44 | -29.72584 | 135.52240 | 769 ft | 147 kts | 14° |
| 2026-04-26 20:45 | -29.71776 | 135.52409 | 748 ft | 81 kts | 11° |
| 2026-04-26 20:45 | -29.71381 | 135.52487 | 748 ft | 23 kts | 10° |